createdAt,value
2023-01-13T00:01:38.284Z,10.80
2023-01-13T00:04:05.132Z,10.90
2023-01-13T00:06:31.743Z,10.80
2023-01-13T00:08:58.422Z,10.70
2023-01-13T00:11:26.284Z,10.70
2023-01-13T00:13:53.051Z,10.70
2023-01-13T00:16:20.809Z,10.80
2023-01-13T00:18:47.892Z,10.70
2023-01-13T00:21:16.279Z,10.70
2023-01-13T00:23:43.015Z,10.80
2023-01-13T00:26:11.147Z,10.70
2023-01-13T00:28:37.837Z,10.70
2023-01-13T00:31:05.449Z,10.70
2023-01-13T00:33:32.099Z,10.80
2023-01-13T00:35:59.458Z,10.70
2023-01-13T00:38:26.382Z,10.80
2023-01-13T00:40:59.935Z,10.70
2023-01-13T00:43:27.178Z,10.60
2023-01-13T00:45:54.242Z,10.50
2023-01-13T00:48:21.798Z,10.60
2023-01-13T00:50:58.395Z,10.60
2023-01-13T00:53:25.860Z,10.60
2023-01-13T00:55:59.141Z,10.60
2023-01-13T00:58:25.776Z,10.60
2023-01-13T01:00:52.534Z,10.60
2023-01-13T01:03:19.210Z,10.60
2023-01-13T01:05:45.832Z,10.50
2023-01-13T01:08:12.521Z,10.60
2023-01-13T01:10:39.144Z,10.60
2023-01-13T01:13:05.794Z,10.60
2023-01-13T01:15:32.464Z,10.60
2023-01-13T01:17:59.122Z,10.60
2023-01-13T01:20:25.783Z,10.60
2023-01-13T01:22:52.529Z,10.60
2023-01-13T01:25:19.185Z,10.50
2023-01-13T01:27:45.795Z,10.60
2023-01-13T01:30:12.680Z,10.60
2023-01-13T01:32:39.350Z,10.60
2023-01-13T01:35:06.218Z,10.60
2023-01-13T01:37:32.829Z,10.50
2023-01-13T01:39:59.461Z,10.50
2023-01-13T01:42:45.109Z,10.50
2023-01-13T01:45:19.668Z,10.40
2023-01-13T01:47:48.334Z,10.40
2023-01-13T01:50:15.102Z,10.20
2023-01-13T01:52:43.080Z,10.10
2023-01-13T01:55:12.068Z,10.10
2023-01-13T01:58:01.582Z,10.00
2023-01-13T02:00:31.759Z,10.00
2023-01-13T02:02:59.350Z,9.80
2023-01-13T02:05:26.220Z,9.90
2023-01-13T02:07:54.842Z,9.90
2023-01-13T02:10:23.479Z,9.90
2023-01-13T02:12:50.639Z,9.90
2023-01-13T02:15:22.279Z,9.90
2023-01-13T02:17:51.949Z,9.90
2023-01-13T02:20:37.332Z,9.80
2023-01-13T02:23:06.987Z,9.80
2023-01-13T02:25:33.584Z,9.80
2023-01-13T02:28:06.289Z,9.80
2023-01-13T02:30:57.999Z,9.80
2023-01-13T02:33:30.616Z,9.90
2023-01-13T02:36:21.584Z,10.00
2023-01-13T02:38:54.531Z,10.00
2023-01-13T02:41:59.806Z,10.00
2023-01-13T02:44:28.018Z,10.10
2023-01-13T02:46:54.605Z,10.10
2023-01-13T02:49:41.871Z,10.20
2023-01-13T02:52:13.910Z,10.20
2023-01-13T02:54:44.054Z,10.30
2023-01-13T02:57:11.677Z,10.20
2023-01-13T02:59:39.867Z,10.30
2023-01-13T03:02:08.356Z,10.30
2023-01-13T03:04:53.840Z,10.30
2023-01-13T03:07:42.682Z,10.30
2023-01-13T03:10:28.333Z,10.30
2023-01-13T03:12:57.964Z,10.30
2023-01-13T03:15:30.611Z,10.30
2023-01-13T03:18:16.153Z,10.30
2023-01-13T03:20:49.084Z,10.30
2023-01-13T03:23:41.937Z,10.20
2023-01-13T03:26:13.286Z,10.20
2023-01-13T03:28:42.546Z,10.10
2023-01-13T03:31:15.613Z,10.20
2023-01-13T03:34:05.292Z,10.00
2023-01-13T03:36:32.353Z,9.90
2023-01-13T03:39:02.953Z,9.90
2023-01-13T03:41:32.744Z,9.90
2023-01-13T03:44:21.085Z,10.00
2023-01-13T03:46:54.270Z,10.00
2023-01-13T03:49:23.379Z,10.10
2023-01-13T03:51:53.671Z,10.10
2023-01-13T03:54:21.659Z,10.10
2023-01-13T03:56:51.340Z,10.00
2023-01-13T03:59:20.279Z,9.90
2023-01-13T04:01:51.129Z,9.80
2023-01-13T04:04:28.038Z,9.70
2023-01-13T04:06:56.531Z,9.70
2023-01-13T04:09:35.388Z,9.70
2023-01-13T04:12:08.416Z,9.80
2023-01-13T04:14:35.761Z,9.80
2023-01-13T04:17:02.377Z,9.90
2023-01-13T04:19:29.112Z,10.00
2023-01-13T04:21:55.772Z,10.10
2023-01-13T04:24:22.403Z,10.10
2023-01-13T04:26:49.198Z,10.20
2023-01-13T04:29:15.967Z,10.30
2023-01-13T04:31:42.893Z,10.50
2023-01-13T04:34:10.201Z,10.50
2023-01-13T04:36:36.860Z,10.50
2023-01-13T04:39:03.655Z,10.50
2023-01-13T04:41:53.242Z,10.60
2023-01-13T04:44:19.935Z,10.60
2023-01-13T04:46:46.648Z,10.60
2023-01-13T04:49:13.309Z,10.60
2023-01-13T04:51:40.060Z,10.60
2023-01-13T04:54:06.745Z,10.60
2023-01-13T04:56:33.379Z,10.30
2023-01-13T04:58:59.995Z,10.10
2023-01-13T05:01:26.865Z,10.10
2023-01-13T05:03:53.646Z,10.10
2023-01-13T05:06:20.258Z,10.10
2023-01-13T05:08:46.993Z,10.10
2023-01-13T05:11:32.472Z,10.20
2023-01-13T05:14:17.522Z,10.30
2023-01-13T05:17:03.499Z,10.40
2023-01-13T05:19:31.724Z,10.50
2023-01-13T05:22:17.114Z,10.60
2023-01-13T05:25:02.580Z,10.60
2023-01-13T05:27:29.813Z,10.70
2023-01-13T05:29:56.720Z,10.70
2023-01-13T05:32:23.428Z,10.70
2023-01-13T05:34:50.173Z,10.70
2023-01-13T05:37:16.804Z,10.70
2023-01-13T05:40:03.017Z,10.70
2023-01-13T05:42:48.561Z,10.80
2023-01-13T05:45:15.312Z,10.80
2023-01-13T05:47:41.940Z,10.80
2023-01-13T05:50:09.165Z,10.80
2023-01-13T05:52:35.904Z,10.70
2023-01-13T05:55:02.659Z,10.90
2023-01-13T05:57:29.375Z,10.90
2023-01-13T05:59:56.015Z,10.90
2023-01-13T06:02:22.730Z,10.90
2023-01-13T06:04:49.345Z,10.80
2023-01-13T06:07:16.004Z,10.90
2023-01-13T06:09:42.655Z,10.80
2023-01-13T06:12:12.909Z,10.80
2023-01-13T06:14:42.479Z,10.90
2023-01-13T06:17:10.000Z,10.80
2023-01-13T06:19:36.849Z,10.80
2023-01-13T06:22:07.768Z,10.80
2023-01-13T06:24:34.765Z,10.90
2023-01-13T06:27:01.421Z,10.90
2023-01-13T06:29:28.030Z,10.90
2023-01-13T06:31:55.084Z,10.90
2023-01-13T06:34:21.873Z,10.90
2023-01-13T06:36:50.214Z,10.90
2023-01-13T06:39:18.852Z,10.90
2023-01-13T06:42:06.465Z,10.90
2023-01-13T06:44:33.159Z,11.00
2023-01-13T06:47:00.054Z,10.90
2023-01-13T06:49:26.747Z,10.90
2023-01-13T06:51:53.419Z,10.80
2023-01-13T06:54:20.037Z,10.70
2023-01-13T06:56:46.696Z,10.70
2023-01-13T06:59:13.368Z,10.70
2023-01-13T07:01:40.154Z,10.80
2023-01-13T07:04:07.037Z,10.70
2023-01-13T07:06:33.661Z,10.50
2023-01-13T07:09:00.318Z,10.40
2023-01-13T07:11:27.041Z,10.30
2023-01-13T07:14:12.591Z,10.30
2023-01-13T07:16:39.291Z,10.40
2023-01-13T07:19:05.930Z,10.40
2023-01-13T07:21:33.708Z,10.40
2023-01-13T07:24:00.317Z,10.20
2023-01-13T07:26:26.984Z,9.90
2023-01-13T07:28:53.608Z,9.70
2023-01-13T07:31:21.139Z,9.60
2023-01-13T07:33:48.199Z,9.40
2023-01-13T07:36:15.144Z,9.20
2023-01-13T07:38:44.172Z,9.10
2023-01-13T07:41:32.896Z,9.00
2023-01-13T07:44:00.451Z,8.90
2023-01-13T07:46:27.121Z,8.90
2023-01-13T07:48:53.737Z,8.90
2023-01-13T07:51:20.527Z,8.90
2023-01-13T07:53:47.160Z,8.90
2023-01-13T07:56:13.861Z,8.80
2023-01-13T07:58:40.502Z,8.80
2023-01-13T08:01:17.195Z,8.80
2023-01-13T08:03:43.931Z,8.60
2023-01-13T08:06:11.210Z,8.40
2023-01-13T08:08:38.432Z,8.30
2023-01-13T08:11:06.064Z,8.20
2023-01-13T08:13:32.968Z,8.20
2023-01-13T08:16:01.052Z,8.20
2023-01-13T08:18:27.801Z,8.00
2023-01-13T08:20:54.676Z,7.90
2023-01-13T08:23:22.498Z,7.90
2023-01-13T08:25:49.803Z,7.90
2023-01-13T08:28:17.230Z,7.90
2023-01-13T08:30:43.992Z,7.90
2023-01-13T08:33:11.739Z,7.90
2023-01-13T08:35:39.469Z,7.90
2023-01-13T08:38:06.577Z,7.90
2023-01-13T08:40:33.247Z,7.90
2023-01-13T08:43:00.058Z,7.80
2023-01-13T08:45:26.804Z,7.90
2023-01-13T08:47:53.501Z,7.90
2023-01-13T08:50:20.172Z,7.90
2023-01-13T08:52:46.789Z,7.80
2023-01-13T08:55:13.429Z,7.80
2023-01-13T08:57:40.078Z,7.70
2023-01-13T09:00:08.392Z,7.80
2023-01-13T09:02:35.128Z,7.70
2023-01-13T09:05:03.853Z,7.70
2023-01-13T09:07:31.203Z,7.80
2023-01-13T09:09:57.928Z,7.70
2023-01-13T09:12:43.238Z,7.70
2023-01-13T09:15:10.102Z,7.70
2023-01-13T09:17:36.762Z,7.70
2023-01-13T09:20:03.882Z,7.70
2023-01-13T09:22:30.528Z,7.80
2023-01-13T09:24:57.206Z,7.80
2023-01-13T09:27:23.939Z,7.90
2023-01-13T09:29:50.704Z,7.90
2023-01-13T09:32:17.404Z,8.00
2023-01-13T09:35:02.661Z,8.00
2023-01-13T09:37:34.123Z,8.00
2023-01-13T09:40:01.207Z,8.10
2023-01-13T09:42:50.019Z,8.10
2023-01-13T09:45:19.595Z,8.20
2023-01-13T09:47:52.234Z,8.30
2023-01-13T09:50:26.220Z,8.30
2023-01-13T09:52:53.328Z,8.40
2023-01-13T09:55:25.496Z,8.60
2023-01-13T09:57:52.533Z,8.60
2023-01-13T10:00:19.232Z,8.90
2023-01-13T10:03:04.501Z,8.90
2023-01-13T10:05:34.099Z,9.10
2023-01-13T10:08:08.778Z,9.40
2023-01-13T10:10:41.219Z,9.80
2023-01-13T10:13:19.983Z,10.10
2023-01-13T10:15:52.638Z,10.00
2023-01-13T10:18:30.577Z,9.90
2023-01-13T10:21:01.692Z,9.80
2023-01-13T10:23:34.665Z,9.60
2023-01-13T10:26:10.443Z,9.60
2023-01-13T10:28:37.092Z,9.70
2023-01-13T10:31:10.091Z,10.60
2023-01-13T10:33:36.786Z,11.20
2023-01-13T10:36:12.613Z,11.10
2023-01-13T10:38:40.582Z,10.50
2023-01-13T10:41:16.565Z,10.10
2023-01-13T10:43:44.254Z,10.00
2023-01-13T10:46:12.162Z,10.10
2023-01-13T10:48:42.745Z,9.90
2023-01-13T10:51:10.487Z,9.80
2023-01-13T10:53:44.773Z,9.80
2023-01-13T10:56:15.796Z,9.80
2023-01-13T10:58:42.448Z,9.80
2023-01-13T11:01:17.247Z,9.70
2023-01-13T11:03:46.941Z,9.60
2023-01-13T11:06:21.178Z,9.50
2023-01-13T11:08:49.595Z,9.50
2023-01-13T11:11:27.521Z,9.40
2023-01-13T11:14:25.717Z,9.40
2023-01-13T11:16:55.100Z,9.40
2023-01-13T11:19:23.497Z,9.50
2023-01-13T11:21:56.501Z,9.50
2023-01-13T11:24:42.125Z,9.50
2023-01-13T11:27:24.128Z,9.60
2023-01-13T11:30:09.682Z,9.40
2023-01-13T11:32:56.697Z,9.20
2023-01-13T11:35:23.986Z,9.20
2023-01-13T11:37:55.544Z,8.90
2023-01-13T11:40:34.868Z,8.70
2023-01-13T11:43:14.295Z,8.60
2023-01-13T11:45:43.807Z,8.80
2023-01-13T11:48:13.533Z,9.10
2023-01-13T11:50:43.032Z,9.00
2023-01-13T11:53:14.260Z,9.20
2023-01-13T11:55:43.953Z,9.30
2023-01-13T11:58:19.016Z,9.40
2023-01-13T12:01:04.248Z,9.40
2023-01-13T12:03:38.159Z,9.10
2023-01-13T12:06:20.183Z,9.20
2023-01-13T12:08:49.991Z,10.10
2023-01-13T12:11:16.634Z,9.80
2023-01-13T12:13:46.060Z,9.30
2023-01-13T12:16:23.690Z,9.00
2023-01-13T12:18:59.629Z,9.00
2023-01-13T12:21:33.015Z,9.10
2023-01-13T12:24:13.125Z,9.10
2023-01-13T12:26:43.641Z,9.10
2023-01-13T12:29:10.419Z,9.10
2023-01-13T12:31:38.461Z,9.30
2023-01-13T12:34:05.223Z,9.30
2023-01-13T12:36:50.905Z,9.20
2023-01-13T12:39:29.498Z,9.30
2023-01-13T12:42:33.135Z,9.30
2023-01-13T12:45:12.232Z,9.20
2023-01-13T12:47:38.899Z,9.10
2023-01-13T12:50:23.927Z,9.10
2023-01-13T12:52:51.695Z,9.30
2023-01-13T12:55:22.524Z,9.70
2023-01-13T12:57:59.573Z,10.20
2023-01-13T13:00:41.331Z,10.50
2023-01-13T13:03:09.991Z,10.60
2023-01-13T13:05:56.880Z,10.40
2023-01-13T13:08:29.893Z,10.10
2023-01-13T13:11:00.299Z,9.80
2023-01-13T13:13:41.317Z,9.60
2023-01-13T13:16:26.470Z,9.60
2023-01-13T13:18:53.455Z,9.20
2023-01-13T13:21:20.133Z,9.00
2023-01-13T13:24:00.865Z,8.80
2023-01-13T13:26:30.938Z,8.70
2023-01-13T13:29:16.103Z,8.90
2023-01-13T13:31:48.940Z,9.20
2023-01-13T13:34:20.704Z,9.50
2023-01-13T13:37:10.899Z,9.80
2023-01-13T13:40:00.042Z,9.90
2023-01-13T13:42:46.455Z,10.00
2023-01-13T13:45:39.121Z,10.30
2023-01-13T13:48:18.822Z,10.20
2023-01-13T13:50:57.399Z,10.40
2023-01-13T13:53:26.494Z,10.30
2023-01-13T13:55:54.567Z,10.00
2023-01-13T13:58:21.887Z,9.90
2023-01-13T14:00:49.019Z,9.80
2023-01-13T14:03:28.851Z,9.80
2023-01-13T14:05:57.095Z,9.80
2023-01-13T14:08:24.205Z,9.70
2023-01-13T14:10:51.189Z,10.00
2023-01-13T14:13:17.823Z,10.10
2023-01-13T14:15:45.302Z,10.00
2023-01-13T14:18:19.200Z,10.00
2023-01-13T14:20:52.853Z,10.00
2023-01-13T14:23:26.415Z,10.20
2023-01-13T14:25:53.092Z,10.40
2023-01-13T14:28:19.719Z,10.40
2023-01-13T14:30:46.644Z,10.20
2023-01-13T14:33:15.650Z,9.80
2023-01-13T14:36:05.603Z,9.50
2023-01-13T14:38:32.535Z,9.20
2023-01-13T14:41:09.162Z,9.00
2023-01-13T14:43:42.066Z,8.80
2023-01-13T14:46:08.842Z,8.50
2023-01-13T14:48:36.191Z,8.20
2023-01-13T14:51:05.709Z,8.10
2023-01-13T14:53:38.547Z,8.10
2023-01-13T14:56:24.089Z,8.10
2023-01-13T14:58:50.788Z,8.10
2023-01-13T15:01:36.092Z,8.30
2023-01-13T15:04:15.534Z,8.40
2023-01-13T15:06:45.963Z,8.60
2023-01-13T15:09:13.066Z,8.70
2023-01-13T15:11:40.615Z,8.50
2023-01-13T15:14:09.887Z,8.20
2023-01-13T15:16:36.871Z,8.10
2023-01-13T15:19:04.227Z,8.00
2023-01-13T15:21:31.864Z,7.90
2023-01-13T15:23:59.777Z,7.80
2023-01-13T15:26:27.569Z,7.70
2023-01-13T15:28:55.720Z,7.60
2023-01-13T15:31:22.914Z,7.50
2023-01-13T15:33:49.606Z,7.50
2023-01-13T15:36:19.128Z,7.50
2023-01-13T15:38:45.802Z,7.50
2023-01-13T15:41:13.887Z,7.40
2023-01-13T15:43:59.016Z,7.40
2023-01-13T15:46:40.842Z,7.30
2023-01-13T15:49:22.933Z,7.40
2023-01-13T15:51:49.666Z,7.50
2023-01-13T15:54:16.405Z,7.50
2023-01-13T15:56:43.181Z,7.50
2023-01-13T15:59:15.365Z,7.50
2023-01-13T16:01:42.061Z,7.50
2023-01-13T16:04:09.393Z,7.50
2023-01-13T16:06:37.155Z,7.50
2023-01-13T16:09:04.199Z,7.50
2023-01-13T16:11:30.858Z,7.50
2023-01-13T16:13:57.767Z,7.50
2023-01-13T16:16:26.337Z,7.40
2023-01-13T16:18:53.668Z,7.50
2023-01-13T16:21:20.919Z,7.40
2023-01-13T16:23:48.602Z,7.40
2023-01-13T16:26:25.607Z,7.40
2023-01-13T16:28:53.602Z,7.40
2023-01-13T16:31:31.859Z,7.40
2023-01-13T16:33:59.889Z,7.40
2023-01-13T16:36:27.228Z,7.40
2023-01-13T16:38:54.412Z,7.40
2023-01-13T16:41:21.915Z,7.30
2023-01-13T16:43:48.656Z,7.40
2023-01-13T16:46:21.363Z,7.30
2023-01-13T16:48:48.786Z,7.30
2023-01-13T16:51:15.444Z,7.30
2023-01-13T16:53:42.283Z,7.30
2023-01-13T16:56:17.415Z,7.40
2023-01-13T16:58:44.083Z,7.40
2023-01-13T17:01:37.304Z,7.40
2023-01-13T17:04:04.483Z,7.40
2023-01-13T17:06:38.861Z,7.40
2023-01-13T17:09:07.326Z,7.40
2023-01-13T17:11:34.346Z,7.40
2023-01-13T17:14:01.011Z,7.40
2023-01-13T17:16:45.529Z,7.40
2023-01-13T17:19:12.463Z,7.50
2023-01-13T17:21:39.298Z,7.40
2023-01-13T17:24:07.775Z,7.20
2023-01-13T17:26:37.148Z,7.00
2023-01-13T17:29:05.488Z,6.90
2023-01-13T17:31:32.221Z,6.90
2023-01-13T17:33:58.936Z,6.80
2023-01-13T17:36:25.717Z,6.80
2023-01-13T17:38:52.823Z,6.80
2023-01-13T17:41:19.555Z,6.80
2023-01-13T17:43:46.336Z,6.80
2023-01-13T17:46:13.609Z,6.90
2023-01-13T17:48:40.227Z,6.80
2023-01-13T17:51:11.661Z,6.80
2023-01-13T17:53:40.719Z,6.80
2023-01-13T17:56:09.502Z,6.80
2023-01-13T17:58:36.859Z,6.80
2023-01-13T18:01:10.862Z,6.80
2023-01-13T18:03:38.424Z,6.90
2023-01-13T18:06:05.767Z,6.80
2023-01-13T18:08:32.442Z,6.80
2023-01-13T18:11:00.552Z,6.90
2023-01-13T18:13:28.075Z,6.90
2023-01-13T18:16:13.829Z,7.00
2023-01-13T18:18:41.541Z,7.00
2023-01-13T18:21:30.767Z,7.20
2023-01-13T18:24:15.879Z,7.20
2023-01-13T18:27:00.982Z,7.20
2023-01-13T18:29:27.630Z,7.20
2023-01-13T18:31:54.263Z,7.20
2023-01-13T18:34:21.008Z,7.20
2023-01-13T18:36:47.670Z,7.20
2023-01-13T18:39:14.309Z,7.20
2023-01-13T18:41:59.427Z,7.30
2023-01-13T18:44:26.128Z,7.30
2023-01-13T18:46:52.776Z,7.30
2023-01-13T18:49:19.426Z,7.30
2023-01-13T18:51:46.059Z,7.30
2023-01-13T18:54:12.797Z,7.40
2023-01-13T18:56:39.515Z,7.30
2023-01-13T18:59:06.123Z,7.40
2023-01-13T19:01:32.946Z,7.40
2023-01-13T19:04:02.495Z,7.40
2023-01-13T19:06:32.709Z,7.40
2023-01-13T19:09:01.483Z,7.30
2023-01-13T19:11:31.155Z,7.30
2023-01-13T19:13:57.797Z,7.30
2023-01-13T19:16:24.432Z,7.40
2023-01-13T19:18:52.966Z,7.40
2023-01-13T19:21:19.751Z,7.40
2023-01-13T19:23:46.454Z,7.30
2023-01-13T19:26:13.104Z,7.30
2023-01-13T19:28:40.271Z,7.40
2023-01-13T19:31:08.129Z,7.30
2023-01-13T19:33:36.090Z,7.20
2023-01-13T19:36:04.509Z,7.20
2023-01-13T19:38:31.557Z,7.20
2023-01-13T19:40:59.550Z,7.30
2023-01-13T19:43:45.079Z,7.20
2023-01-13T19:46:11.983Z,7.30
2023-01-13T19:48:39.090Z,7.30
2023-01-13T19:51:06.226Z,7.30
2023-01-13T19:53:32.882Z,7.20
2023-01-13T19:55:59.610Z,7.20
2023-01-13T19:58:26.275Z,7.30
2023-01-13T20:00:53.786Z,7.20
2023-01-13T20:03:24.144Z,7.20
2023-01-13T20:05:51.322Z,7.10
2023-01-13T20:08:18.961Z,7.00
2023-01-13T20:10:46.044Z,7.00
2023-01-13T20:13:12.928Z,7.00
2023-01-13T20:15:40.345Z,7.00
2023-01-13T20:18:07.271Z,7.00
2023-01-13T20:20:33.990Z,6.90
2023-01-13T20:23:00.674Z,7.00
2023-01-13T20:25:28.789Z,6.90
2023-01-13T20:27:56.510Z,6.90
2023-01-13T20:30:23.673Z,6.90
2023-01-13T20:32:50.422Z,7.10
2023-01-13T20:35:17.151Z,7.10
2023-01-13T20:37:43.918Z,7.10
2023-01-13T20:40:13.273Z,7.10
2023-01-13T20:42:44.617Z,7.10
2023-01-13T20:45:15.283Z,7.10
2023-01-13T20:47:41.947Z,7.00
2023-01-13T20:50:09.036Z,6.90
2023-01-13T20:52:36.798Z,6.90
2023-01-13T20:55:04.628Z,6.80
2023-01-13T20:57:31.299Z,6.70
2023-01-13T20:59:57.972Z,6.70
2023-01-13T21:02:25.365Z,6.70
2023-01-13T21:04:52.174Z,6.60
2023-01-13T21:07:18.800Z,6.50
2023-01-13T21:09:45.446Z,6.50
2023-01-13T21:12:33.852Z,6.40
2023-01-13T21:15:19.914Z,6.30
2023-01-13T21:18:05.746Z,6.30
2023-01-13T21:20:33.632Z,6.30
2023-01-13T21:23:01.177Z,6.20
2023-01-13T21:25:28.083Z,6.20
2023-01-13T21:27:55.449Z,6.10
2023-01-13T21:30:23.190Z,6.20
2023-01-13T21:32:49.888Z,6.20
2023-01-13T21:35:16.596Z,6.20
2023-01-13T21:37:44.149Z,6.20
2023-01-13T21:40:12.140Z,6.20
2023-01-13T21:42:57.647Z,6.30
2023-01-13T21:45:42.839Z,6.40
2023-01-13T21:48:09.585Z,6.40
2023-01-13T21:50:37.794Z,6.50
2023-01-13T21:53:04.811Z,6.60
2023-01-13T21:55:32.799Z,6.50
2023-01-13T21:58:12.446Z,6.60
2023-01-13T22:00:40.074Z,6.70
2023-01-13T22:03:08.025Z,6.70
2023-01-13T22:05:34.834Z,6.70
2023-01-13T22:08:01.554Z,6.80
2023-01-13T22:10:29.973Z,6.80
2023-01-13T22:12:58.740Z,6.90
2023-01-13T22:15:27.174Z,6.90
2023-01-13T22:17:54.504Z,7.00
2023-01-13T22:20:21.521Z,7.00
2023-01-13T22:22:48.473Z,7.10
2023-01-13T22:25:15.720Z,7.10
2023-01-13T22:27:44.421Z,7.10
2023-01-13T22:30:12.677Z,7.10
2023-01-13T22:32:39.557Z,7.10
2023-01-13T22:35:07.785Z,7.10
2023-01-13T22:37:34.823Z,7.20
2023-01-13T22:40:01.741Z,7.20
2023-01-13T22:42:28.341Z,7.20
2023-01-13T22:44:54.948Z,7.10
2023-01-13T22:47:21.590Z,7.10
2023-01-13T22:49:48.200Z,7.10
2023-01-13T22:52:16.171Z,7.10
2023-01-13T22:54:43.073Z,7.10
2023-01-13T22:57:09.728Z,7.10
2023-01-13T22:59:36.450Z,7.10
2023-01-13T23:02:03.162Z,7.00
2023-01-13T23:04:29.847Z,7.10
2023-01-13T23:06:56.670Z,7.00
2023-01-13T23:09:23.325Z,7.00
2023-01-13T23:11:50.044Z,7.00
2023-01-13T23:14:16.746Z,7.00
2023-01-13T23:16:43.459Z,6.90
2023-01-13T23:19:10.388Z,6.90
2023-01-13T23:21:37.549Z,6.90
2023-01-13T23:24:04.786Z,6.90
2023-01-13T23:26:31.781Z,7.00
2023-01-13T23:29:02.683Z,7.00
2023-01-13T23:31:29.718Z,7.10
2023-01-13T23:33:56.330Z,7.10
2023-01-13T23:36:24.380Z,7.00
2023-01-13T23:38:51.858Z,7.00
2023-01-13T23:41:20.014Z,7.10
2023-01-13T23:43:50.735Z,7.00
2023-01-13T23:46:17.554Z,7.00
2023-01-13T23:48:44.251Z,7.00
2023-01-13T23:51:11.622Z,7.00
2023-01-13T23:53:40.604Z,7.00
2023-01-13T23:56:08.451Z,6.90
2023-01-13T23:58:35.425Z,6.90
